sensor_id;sensor_type;location;lat;lon;timestamp;pressure;altitude;pressure_sealevel;temperature;humidity
69707;BME280;56975;55.726;37.566;2024-02-26T00:00:08;100820.0;;;-1.8;62.6
69707;BME280;56975;55.726;37.566;2024-02-26T00:05:00;100800.0;;;-2.0;62.4
69707;BME280;56975;55.726;37.566;2024-02-26T00:10:00;100810.0;;;-1.8;62.1
69707;BME280;56975;55.726;37.566;2024-02-26T00:15:08;100820.0;;;-1.9;62.3
69707;BME280;56975;55.726;37.566;2024-02-26T00:20:01;100800.0;;;-2.0;62.4
69707;BME280;56975;55.726;37.566;2024-02-26T00:25:00;100810.0;;;-2.1;63.0
69707;BME280;56975;55.726;37.566;2024-02-26T00:30:08;100800.0;;;-2.0;62.9
69707;BME280;56975;55.726;37.566;2024-02-26T00:35:00;100800.0;;;-2.1;63.1
69707;BME280;56975;55.726;37.566;2024-02-26T00:40:00;100800.0;;;-2.1;63.4
69707;BME280;56975;55.726;37.566;2024-02-26T00:45:08;100780.0;;;-2.1;63.2
69707;BME280;56975;55.726;37.566;2024-02-26T00:50:00;100800.0;;;-2.1;63.8
69707;BME280;56975;55.726;37.566;2024-02-26T00:55:01;100800.0;;;-2.2;63.7
69707;BME280;56975;55.726;37.566;2024-02-26T01:05:00;100780.0;;;-2.2;63.3
69707;BME280;56975;55.726;37.566;2024-02-26T01:10:00;100790.0;;;-2.2;63.3
69707;BME280;56975;55.726;37.566;2024-02-26T01:20:00;100790.0;;;-2.2;62.8
69707;BME280;56975;55.726;37.566;2024-02-26T01:25:00;100790.0;;;-2.3;62.9
69707;BME280;56975;55.726;37.566;2024-02-26T01:30:08;100790.0;;;-2.3;63.7
69707;BME280;56975;55.726;37.566;2024-02-26T01:35:00;100790.0;;;-2.3;63.4
69707;BME280;56975;55.726;37.566;2024-02-26T01:40:00;100780.0;;;-2.3;62.9
69707;BME280;56975;55.726;37.566;2024-02-26T01:45:08;100800.0;;;-2.1;62.9
69707;BME280;56975;55.726;37.566;2024-02-26T01:50:00;100790.0;;;-2.1;62.9
69707;BME280;56975;55.726;37.566;2024-02-26T01:55:00;100800.0;;;-2.2;62.3
69707;BME280;56975;55.726;37.566;2024-02-26T02:00:08;100780.0;;;-2.2;62.8
69707;BME280;56975;55.726;37.566;2024-02-26T02:05:00;100770.0;;;-2.1;63.0
69707;BME280;56975;55.726;37.566;2024-02-26T02:10:00;100750.0;;;-2.4;62.5
69707;BME280;56975;55.726;37.566;2024-02-26T02:15:07;100760.0;;;-2.4;62.1
69707;BME280;56975;55.726;37.566;2024-02-26T02:20:00;100770.0;;;-2.3;62.0
69707;BME280;56975;55.726;37.566;2024-02-26T02:25:00;100760.0;;;-2.4;61.7
69707;BME280;56975;55.726;37.566;2024-02-26T02:30:24;100780.0;;;-2.4;62.0
69707;BME280;56975;55.726;37.566;2024-02-26T02:35:00;100770.0;;;-2.2;61.8
69707;BME280;56975;55.726;37.566;2024-02-26T02:40:00;100760.0;;;-2.4;62.8
69707;BME280;56975;55.726;37.566;2024-02-26T02:45:08;100760.0;;;-2.1;61.5
69707;BME280;56975;55.726;37.566;2024-02-26T02:50:00;100760.0;;;-2.4;61.7
69707;BME280;56975;55.726;37.566;2024-02-26T02:55:01;100760.0;;;-2.4;62.1
69707;BME280;56975;55.726;37.566;2024-02-26T03:00:08;100760.0;;;-2.5;62.1
69707;BME280;56975;55.726;37.566;2024-02-26T03:05:00;100760.0;;;-2.6;62.6
69707;BME280;56975;55.726;37.566;2024-02-26T03:10:00;100760.0;;;-2.5;62.4
69707;BME280;56975;55.726;37.566;2024-02-26T03:15:08;100760.0;;;-2.6;62.8
69707;BME280;56975;55.726;37.566;2024-02-26T03:20:00;100760.0;;;-2.6;63.0
69707;BME280;56975;55.726;37.566;2024-02-26T03:25:00;100750.0;;;-2.7;63.0
69707;BME280;56975;55.726;37.566;2024-02-26T03:35:00;100770.0;;;-2.7;63.1
69707;BME280;56975;55.726;37.566;2024-02-26T03:40:00;100750.0;;;-2.6;62.8
69707;BME280;56975;55.726;37.566;2024-02-26T03:45:08;100740.0;;;-2.8;63.5
69707;BME280;56975;55.726;37.566;2024-02-26T03:50:00;100750.0;;;-2.8;63.5
69707;BME280;56975;55.726;37.566;2024-02-26T03:55:00;100750.0;;;-2.8;63.6
69707;BME280;56975;55.726;37.566;2024-02-26T04:05:00;100740.0;;;-3.0;63.7
69707;BME280;56975;55.726;37.566;2024-02-26T04:10:02;100760.0;;;-2.9;64.4
69707;BME280;56975;55.726;37.566;2024-02-26T04:15:08;100750.0;;;-2.9;64.4
69707;BME280;56975;55.726;37.566;2024-02-26T04:20:00;100760.0;;;-3.0;64.5
69707;BME280;56975;55.726;37.566;2024-02-26T04:25:00;100760.0;;;-3.0;64.8
69707;BME280;56975;55.726;37.566;2024-02-26T04:30:08;100750.0;;;-3.0;65.4
69707;BME280;56975;55.726;37.566;2024-02-26T04:35:00;100760.0;;;-3.0;66.0
69707;BME280;56975;55.726;37.566;2024-02-26T04:40:00;100760.0;;;-2.9;66.0
69707;BME280;56975;55.726;37.566;2024-02-26T04:45:08;100770.0;;;-2.9;66.2
69707;BME280;56975;55.726;37.566;2024-02-26T04:50:00;100760.0;;;-2.9;65.9
69707;BME280;56975;55.726;37.566;2024-02-26T04:55:00;100750.0;;;-3.0;66.3
69707;BME280;56975;55.726;37.566;2024-02-26T05:00:08;100760.0;;;-2.9;66.7
69707;BME280;56975;55.726;37.566;2024-02-26T05:05:00;100750.0;;;-3.0;66.8
69707;BME280;56975;55.726;37.566;2024-02-26T05:10:00;100750.0;;;-2.2;65.1
69707;BME280;56975;55.726;37.566;2024-02-26T05:15:08;100750.0;;;-3.0;67.5
69707;BME280;56975;55.726;37.566;2024-02-26T05:20:00;100750.0;;;-3.0;67.0
69707;BME280;56975;55.726;37.566;2024-02-26T05:25:00;100750.0;;;-3.0;67.7
69707;BME280;56975;55.726;37.566;2024-02-26T05:30:08;100750.0;;;-3.0;68.2
69707;BME280;56975;55.726;37.566;2024-02-26T05:35:00;100750.0;;;-3.0;67.4
69707;BME280;56975;55.726;37.566;2024-02-26T05:40:00;100730.0;;;-3.2;68.1
69707;BME280;56975;55.726;37.566;2024-02-26T05:45:08;100750.0;;;-3.0;68.8
69707;BME280;56975;55.726;37.566;2024-02-26T05:50:00;100740.0;;;-3.0;68.4
69707;BME280;56975;55.726;37.566;2024-02-26T05:55:00;100740.0;;;-2.9;68.3
69707;BME280;56975;55.726;37.566;2024-02-26T06:00:08;100750.0;;;-2.9;69.1
69707;BME280;56975;55.726;37.566;2024-02-26T06:05:00;100730.0;;;-3.0;68.7
69707;BME280;56975;55.726;37.566;2024-02-26T06:10:00;100760.0;;;-3.0;69.1
69707;BME280;56975;55.726;37.566;2024-02-26T06:20:00;100770.0;;;-3.0;69.4
69707;BME280;56975;55.726;37.566;2024-02-26T06:25:00;100770.0;;;-3.0;69.5
69707;BME280;56975;55.726;37.566;2024-02-26T06:30:08;100770.0;;;-2.9;69.7
69707;BME280;56975;55.726;37.566;2024-02-26T06:35:00;100750.0;;;-3.1;70.3
69707;BME280;56975;55.726;37.566;2024-02-26T06:40:00;100750.0;;;-3.0;70.3
69707;BME280;56975;55.726;37.566;2024-02-26T06:45:07;100760.0;;;-2.6;69.3
69707;BME280;56975;55.726;37.566;2024-02-26T06:50:00;100770.0;;;-2.9;70.4
69707;BME280;56975;55.726;37.566;2024-02-26T06:55:00;100780.0;;;-2.9;69.6
69707;BME280;56975;55.726;37.566;2024-02-26T07:00:08;100790.0;;;-2.7;69.4
69707;BME280;56975;55.726;37.566;2024-02-26T07:05:00;100760.0;;;-2.8;70.1
69707;BME280;56975;55.726;37.566;2024-02-26T07:10:00;100750.0;;;-2.7;69.4
69707;BME280;56975;55.726;37.566;2024-02-26T07:20:00;100720.0;;;-2.8;70.4
69707;BME280;56975;55.726;37.566;2024-02-26T07:25:00;100750.0;;;-1.7;67.4
69707;BME280;56975;55.726;37.566;2024-02-26T07:30:08;100750.0;;;-2.3;68.8
69707;BME280;56975;55.726;37.566;2024-02-26T07:35:00;100760.0;;;-2.3;69.1
69707;BME280;56975;55.726;37.566;2024-02-26T07:40:00;100750.0;;;-2.3;69.4
69707;BME280;56975;55.726;37.566;2024-02-26T07:45:08;100750.0;;;-2.1;67.8
69707;BME280;56975;55.726;37.566;2024-02-26T07:50:00;100750.0;;;-1.9;67.4
69707;BME280;56975;55.726;37.566;2024-02-26T07:55:00;100750.0;;;-1.6;67.1
69707;BME280;56975;55.726;37.566;2024-02-26T08:00:08;100760.0;;;-1.5;67.3
69707;BME280;56975;55.726;37.566;2024-02-26T08:05:00;100740.0;;;-1.2;65.6
69707;BME280;56975;55.726;37.566;2024-02-26T08:10:00;100740.0;;;-1.7;66.5
69707;BME280;56975;55.726;37.566;2024-02-26T08:20:00;100740.0;;;-1.7;67.2
69707;BME280;56975;55.726;37.566;2024-02-26T08:25:00;100750.0;;;-1.6;66.8
69707;BME280;56975;55.726;37.566;2024-02-26T08:30:08;100730.0;;;-1.6;66.6
69707;BME280;56975;55.726;37.566;2024-02-26T08:35:00;100730.0;;;-1.6;67.3
69707;BME280;56975;55.726;37.566;2024-02-26T08:40:00;100740.0;;;-1.6;67.3
69707;BME280;56975;55.726;37.566;2024-02-26T08:55:00;100710.0;;;-1.1;66.5
69707;BME280;56975;55.726;37.566;2024-02-26T09:00:08;100720.0;;;-1.1;66.6
69707;BME280;56975;55.726;37.566;2024-02-26T09:05:00;100710.0;;;-0.7;65.9
69707;BME280;56975;55.726;37.566;2024-02-26T09:10:00;100710.0;;;-0.5;64.9
69707;BME280;56975;55.726;37.566;2024-02-26T09:15:08;100700.0;;;-0.9;66.2
69707;BME280;56975;55.726;37.566;2024-02-26T09:20:01;100710.0;;;-0.5;65.4
69707;BME280;56975;55.726;37.566;2024-02-26T09:25:00;100700.0;;;-0.8;65.3
69707;BME280;56975;55.726;37.566;2024-02-26T09:30:08;100700.0;;;-0.3;64.3
69707;BME280;56975;55.726;37.566;2024-02-26T09:35:00;100710.0;;;-0.7;64.7
69707;BME280;56975;55.726;37.566;2024-02-26T09:40:00;100700.0;;;-0.3;64.2
69707;BME280;56975;55.726;37.566;2024-02-26T09:45:08;100700.0;;;-0.8;65.3
69707;BME280;56975;55.726;37.566;2024-02-26T09:50:01;100700.0;;;-0.4;65.0
69707;BME280;56975;55.726;37.566;2024-02-26T09:55:00;100690.0;;;-0.5;64.5
69707;BME280;56975;55.726;37.566;2024-02-26T10:00:08;100710.0;;;-0.3;64.3
69707;BME280;56975;55.726;37.566;2024-02-26T10:05:02;100710.0;;;-0.5;65.2
69707;BME280;56975;55.726;37.566;2024-02-26T10:20:11;100700.0;;;0.2;62.7
69707;BME280;56975;55.726;37.566;2024-02-26T10:25:00;100700.0;;;0.2;62.4
69707;BME280;56975;55.726;37.566;2024-02-26T10:30:02;100700.0;;;-0.4;63.5
69707;BME280;56975;55.726;37.566;2024-02-26T10:35:08;100700.0;;;0.1;63.7
69707;BME280;56975;55.726;37.566;2024-02-26T10:40:01;100690.0;;;0.1;62.9
69707;BME280;56975;55.726;37.566;2024-02-26T10:45:00;100700.0;;;0.3;62.8
69707;BME280;56975;55.726;37.566;2024-02-26T10:50:08;100680.0;;;0.4;62.5
69707;BME280;56975;55.726;37.566;2024-02-26T10:55:01;100680.0;;;0.4;62.0
69707;BME280;56975;55.726;37.566;2024-02-26T11:00:02;100680.0;;;0.4;61.9
69707;BME280;56975;55.726;37.566;2024-02-26T11:05:08;100670.0;;;0.4;62.8
69707;BME280;56975;55.726;37.566;2024-02-26T11:10:01;100680.0;;;0.3;62.4
69707;BME280;56975;55.726;37.566;2024-02-26T11:15:00;100670.0;;;0.3;62.5
69707;BME280;56975;55.726;37.566;2024-02-26T11:25:07;100660.0;;;1.1;59.6
69707;BME280;56975;55.726;37.566;2024-02-26T11:30:01;100680.0;;;1.6;59.4
69707;BME280;56975;55.726;37.566;2024-02-26T11:35:00;100660.0;;;0.9;61.1
69707;BME280;56975;55.726;37.566;2024-02-26T11:40:10;100660.0;;;1.5;58.9
69707;BME280;56975;55.726;37.566;2024-02-26T11:45:00;100650.0;;;0.8;60.5
69707;BME280;56975;55.726;37.566;2024-02-26T11:55:00;100660.0;;;2.2;57.6
69707;BME280;56975;55.726;37.566;2024-02-26T12:00:11;100640.0;;;3.0;55.7
69707;BME280;56975;55.726;37.566;2024-02-26T12:05:09;100640.0;;;2.4;56.7
69707;BME280;56975;55.726;37.566;2024-02-26T12:25:08;100640.0;;;2.5;55.7
69707;BME280;56975;55.726;37.566;2024-02-26T12:30:00;100630.0;;;1.5;57.6
69707;BME280;56975;55.726;37.566;2024-02-26T12:35:00;100630.0;;;0.9;59.3
69707;BME280;56975;55.726;37.566;2024-02-26T12:40:08;100650.0;;;0.6;60.9
69707;BME280;56975;55.726;37.566;2024-02-26T12:45:00;100630.0;;;0.3;61.4
69707;BME280;56975;55.726;37.566;2024-02-26T12:50:00;100640.0;;;0.3;61.9
69707;BME280;56975;55.726;37.566;2024-02-26T12:55:07;100630.0;;;0.3;61.6
69707;BME280;56975;55.726;37.566;2024-02-26T13:00:01;100610.0;;;0.4;61.4
69707;BME280;56975;55.726;37.566;2024-02-26T13:05:01;100630.0;;;0.4;61.1
69707;BME280;56975;55.726;37.566;2024-02-26T13:10:08;100640.0;;;0.5;60.4
69707;BME280;56975;55.726;37.566;2024-02-26T13:15:00;100640.0;;;0.6;59.0
69707;BME280;56975;55.726;37.566;2024-02-26T13:20:00;100650.0;;;0.2;58.4
69707;BME280;56975;55.726;37.566;2024-02-26T13:25:07;100620.0;;;0.2;57.5
69707;BME280;56975;55.726;37.566;2024-02-26T13:30:02;100640.0;;;0.1;57.4
69707;BME280;56975;55.726;37.566;2024-02-26T13:35:09;100640.0;;;0.2;55.3
69707;BME280;56975;55.726;37.566;2024-02-26T13:45:08;100630.0;;;-0.3;54.8
69707;BME280;56975;55.726;37.566;2024-02-26T14:05:00;100630.0;;;-0.6;52.2
69707;BME280;56975;55.726;37.566;2024-02-26T14:10:00;100640.0;;;-0.5;51.6
69707;BME280;56975;55.726;37.566;2024-02-26T14:15:08;100640.0;;;0.0;50.7
69707;BME280;56975;55.726;37.566;2024-02-26T14:20:00;100640.0;;;0.6;48.8
69707;BME280;56975;55.726;37.566;2024-02-26T14:25:00;100650.0;;;0.8;48.1
69707;BME280;56975;55.726;37.566;2024-02-26T14:30:08;100650.0;;;1.4;46.7
69707;BME280;56975;55.726;37.566;2024-02-26T14:35:00;100650.0;;;0.4;48.2
69707;BME280;56975;55.726;37.566;2024-02-26T14:45:07;100650.0;;;-0.6;51.4
69707;BME280;56975;55.726;37.566;2024-02-26T14:50:00;100650.0;;;-0.7;52.4
69707;BME280;56975;55.726;37.566;2024-02-26T14:55:00;100650.0;;;-0.9;52.9
69707;BME280;56975;55.726;37.566;2024-02-26T15:00:08;100660.0;;;-1.0;54.1
69707;BME280;56975;55.726;37.566;2024-02-26T15:05:00;100660.0;;;-1.0;54.7
69707;BME280;56975;55.726;37.566;2024-02-26T15:10:00;100640.0;;;-1.2;54.4
69707;BME280;56975;55.726;37.566;2024-02-26T15:15:08;100650.0;;;-1.3;55.6
69707;BME280;56975;55.726;37.566;2024-02-26T15:20:00;100650.0;;;-1.5;55.9
69707;BME280;56975;55.726;37.566;2024-02-26T15:25:00;100650.0;;;-1.5;55.6
69707;BME280;56975;55.726;37.566;2024-02-26T15:30:08;100650.0;;;-1.8;55.4
69707;BME280;56975;55.726;37.566;2024-02-26T15:35:00;100650.0;;;-1.9;56.1
69707;BME280;56975;55.726;37.566;2024-02-26T15:40:00;100650.0;;;-2.0;55.8
69707;BME280;56975;55.726;37.566;2024-02-26T15:55:00;100660.0;;;-2.2;57.7
69707;BME280;56975;55.726;37.566;2024-02-26T16:00:00;100670.0;;;-2.3;57.7
69707;BME280;56975;55.726;37.566;2024-02-26T16:10:08;100670.0;;;-2.4;58.0
69707;BME280;56975;55.726;37.566;2024-02-26T16:20:02;100670.0;;;-2.5;58.2
69707;BME280;56975;55.726;37.566;2024-02-26T16:25:08;100680.0;;;-2.5;58.2
69707;BME280;56975;55.726;37.566;2024-02-26T16:30:00;100680.0;;;-2.5;58.2
69707;BME280;56975;55.726;37.566;2024-02-26T16:35:00;100670.0;;;-2.6;57.9
69707;BME280;56975;55.726;37.566;2024-02-26T16:40:08;100680.0;;;-2.7;58.3
69707;BME280;56975;55.726;37.566;2024-02-26T16:45:00;100680.0;;;-2.7;58.5
69707;BME280;56975;55.726;37.566;2024-02-26T16:50:00;100680.0;;;-2.7;58.2
69707;BME280;56975;55.726;37.566;2024-02-26T16:55:08;100700.0;;;-2.7;58.2
69707;BME280;56975;55.726;37.566;2024-02-26T17:00:00;100690.0;;;-2.8;58.0
69707;BME280;56975;55.726;37.566;2024-02-26T17:05:00;100660.0;;;-2.8;57.1
69707;BME280;56975;55.726;37.566;2024-02-26T17:10:08;100670.0;;;-2.8;57.6
69707;BME280;56975;55.726;37.566;2024-02-26T17:15:00;100690.0;;;-2.8;57.4
69707;BME280;56975;55.726;37.566;2024-02-26T17:20:00;100670.0;;;-2.8;57.8
69707;BME280;56975;55.726;37.566;2024-02-26T17:25:07;100680.0;;;-2.8;57.5
69707;BME280;56975;55.726;37.566;2024-02-26T17:30:00;100690.0;;;-2.8;57.6
69707;BME280;56975;55.726;37.566;2024-02-26T17:35:00;100680.0;;;-2.9;57.5
69707;BME280;56975;55.726;37.566;2024-02-26T17:40:08;100690.0;;;-2.8;57.5
69707;BME280;56975;55.726;37.566;2024-02-26T17:45:00;100700.0;;;-2.8;57.7
69707;BME280;56975;55.726;37.566;2024-02-26T17:50:00;100710.0;;;-2.8;57.4
69707;BME280;56975;55.726;37.566;2024-02-26T17:55:08;100690.0;;;-3.0;57.7
69707;BME280;56975;55.726;37.566;2024-02-26T18:00:00;100700.0;;;-2.9;57.7
69707;BME280;56975;55.726;37.566;2024-02-26T18:05:00;100690.0;;;-3.0;57.1
69707;BME280;56975;55.726;37.566;2024-02-26T18:10:08;100700.0;;;-2.9;56.9
69707;BME280;56975;55.726;37.566;2024-02-26T18:15:00;100700.0;;;-2.9;57.2
69707;BME280;56975;55.726;37.566;2024-02-26T18:20:00;100700.0;;;-3.0;57.5
69707;BME280;56975;55.726;37.566;2024-02-26T18:25:08;100710.0;;;-3.0;57.6
69707;BME280;56975;55.726;37.566;2024-02-26T18:30:00;100720.0;;;-2.9;57.5
69707;BME280;56975;55.726;37.566;2024-02-26T18:35:00;100710.0;;;-3.0;57.6
69707;BME280;56975;55.726;37.566;2024-02-26T18:40:08;100700.0;;;-3.0;57.8
69707;BME280;56975;55.726;37.566;2024-02-26T18:45:00;100710.0;;;-2.9;57.3
69707;BME280;56975;55.726;37.566;2024-02-26T18:50:00;100700.0;;;-3.0;57.4
69707;BME280;56975;55.726;37.566;2024-02-26T19:00:00;100700.0;;;-3.1;57.9
69707;BME280;56975;55.726;37.566;2024-02-26T19:05:00;100690.0;;;-3.1;58.5
69707;BME280;56975;55.726;37.566;2024-02-26T19:15:08;100720.0;;;-3.0;57.7
69707;BME280;56975;55.726;37.566;2024-02-26T19:20:00;100690.0;;;-3.2;58.1
69707;BME280;56975;55.726;37.566;2024-02-26T19:25:00;100690.0;;;-3.1;58.4
69707;BME280;56975;55.726;37.566;2024-02-26T19:30:08;100700.0;;;-3.2;59.0
69707;BME280;56975;55.726;37.566;2024-02-26T19:35:00;100700.0;;;-3.2;58.8
69707;BME280;56975;55.726;37.566;2024-02-26T19:40:00;100720.0;;;-3.1;58.8
69707;BME280;56975;55.726;37.566;2024-02-26T19:45:08;100720.0;;;-3.0;58.4
69707;BME280;56975;55.726;37.566;2024-02-26T19:50:00;100710.0;;;-2.9;58.7
69707;BME280;56975;55.726;37.566;2024-02-26T19:55:00;100720.0;;;-3.4;59.8
69707;BME280;56975;55.726;37.566;2024-02-26T20:00:08;100710.0;;;-3.4;60.0
69707;BME280;56975;55.726;37.566;2024-02-26T20:05:00;100730.0;;;-3.2;59.6
69707;BME280;56975;55.726;37.566;2024-02-26T20:10:00;100720.0;;;-3.5;60.7
69707;BME280;56975;55.726;37.566;2024-02-26T20:15:07;100720.0;;;-3.4;60.4
69707;BME280;56975;55.726;37.566;2024-02-26T20:20:00;100720.0;;;-3.3;60.4
69707;BME280;56975;55.726;37.566;2024-02-26T20:25:00;100730.0;;;-3.3;60.8
69707;BME280;56975;55.726;37.566;2024-02-26T20:35:08;100730.0;;;-3.6;61.2
69707;BME280;56975;55.726;37.566;2024-02-26T20:40:00;100740.0;;;-3.5;61.3
69707;BME280;56975;55.726;37.566;2024-02-26T20:50:08;100720.0;;;-3.6;62.1
69707;BME280;56975;55.726;37.566;2024-02-26T20:55:00;100720.0;;;-3.8;62.5
69707;BME280;56975;55.726;37.566;2024-02-26T21:00:00;100710.0;;;-3.8;62.9
69707;BME280;56975;55.726;37.566;2024-02-26T21:05:08;100730.0;;;-3.6;62.5
69707;BME280;56975;55.726;37.566;2024-02-26T21:10:00;100730.0;;;-4.0;63.5
69707;BME280;56975;55.726;37.566;2024-02-26T21:15:00;100720.0;;;-4.0;63.9
69707;BME280;56975;55.726;37.566;2024-02-26T21:20:08;100720.0;;;-4.0;63.9
69707;BME280;56975;55.726;37.566;2024-02-26T21:25:00;100720.0;;;-4.0;64.2
69707;BME280;56975;55.726;37.566;2024-02-26T21:30:01;100730.0;;;-4.1;64.4
69707;BME280;56975;55.726;37.566;2024-02-26T21:35:08;100730.0;;;-4.2;65.0
69707;BME280;56975;55.726;37.566;2024-02-26T21:40:00;100740.0;;;-4.2;65.2
69707;BME280;56975;55.726;37.566;2024-02-26T21:45:00;100730.0;;;-4.1;65.1
69707;BME280;56975;55.726;37.566;2024-02-26T21:50:08;100750.0;;;-4.0;65.2
69707;BME280;56975;55.726;37.566;2024-02-26T21:55:00;100740.0;;;-4.2;65.5
69707;BME280;56975;55.726;37.566;2024-02-26T22:00:00;100750.0;;;-4.3;66.0
69707;BME280;56975;55.726;37.566;2024-02-26T22:05:07;100750.0;;;-4.3;65.9
69707;BME280;56975;55.726;37.566;2024-02-26T22:10:00;100760.0;;;-4.2;66.0
69707;BME280;56975;55.726;37.566;2024-02-26T22:15:00;100760.0;;;-4.4;66.8
69707;BME280;56975;55.726;37.566;2024-02-26T22:30:00;100770.0;;;-4.5;67.0
69707;BME280;56975;55.726;37.566;2024-02-26T22:35:07;100770.0;;;-4.4;67.3
69707;BME280;56975;55.726;37.566;2024-02-26T22:40:00;100780.0;;;-4.5;67.4
69707;BME280;56975;55.726;37.566;2024-02-26T22:45:00;100770.0;;;-4.5;67.8
69707;BME280;56975;55.726;37.566;2024-02-26T23:05:07;100810.0;;;-4.5;68.4
69707;BME280;56975;55.726;37.566;2024-02-26T23:10:00;100810.0;;;-4.5;68.5
69707;BME280;56975;55.726;37.566;2024-02-26T23:15:00;100820.0;;;-4.6;68.8
69707;BME280;56975;55.726;37.566;2024-02-26T23:20:08;100820.0;;;-4.5;69.0
69707;BME280;56975;55.726;37.566;2024-02-26T23:25:00;100810.0;;;-4.6;69.1
69707;BME280;56975;55.726;37.566;2024-02-26T23:30:01;100800.0;;;-4.6;69.4
69707;BME280;56975;55.726;37.566;2024-02-26T23:45:00;100810.0;;;-4.6;70.0
69707;BME280;56975;55.726;37.566;2024-02-26T23:50:00;100810.0;;;-4.6;70.1
